M I D A S
Marine Information and Data Acquisition System
Tripno 1428 of the Zeeleeuw from 2008-02-25 07:37:06 to 2008-02-25 14:37:06
Back to CruiseResearch ActivitiesStationsMapUnderway DataData graphs

EquipmentUnitsComment
TimeDGPSUTC
LatitudeDGPSDM.mWGS84
LongitudeDGPSDM.mWGS84
HeadingGyrodeg 
SOGDGPSknotsSpeed over ground
COGDGPSdegCourse over ground
DepthEcho soundermeters200 kHz
Missing or incorrect values are displayed as -999
Navigation data collected by the RV Zeeleeuw from 2008-02-25 07:27:03 to 2008-02-25 14:47:41
Time Latitude Longitude Heading SOG COG Depth
2008-02-25 07:28:07 51°13.664 2°55.955 127.5 -999 89 6.3
2008-02-25 07:29:08 51°13.665 2°55.956 126.9 -999 142 6.1
2008-02-25 07:30:08 51°13.665 2°55.956 127.2 0.1 137 6.2
2008-02-25 07:31:08 51°13.665 2°55.956 127.6 -999 101 6.3
2008-02-25 07:32:07 51°13.665 2°55.956 127.8 -999 184 6.1
2008-02-25 07:33:08 51°13.665 2°55.955 127.9 -999 351 6.2
2008-02-25 07:34:08 51°13.665 2°55.955 127.9 -999 348 6.1
2008-02-25 07:35:08 51°13.665 2°55.955 127.7 -999 36 6.1
2008-02-25 07:36:08 51°13.666 2°55.956 127 -999 318 -999
2008-02-25 07:37:08 51°13.665 2°55.955 120.4 0.1 191 6.1
2008-02-25 07:38:08 51°13.663 2°55.955 110.3 0.1 200 6.1
2008-02-25 07:39:08 51°13.677 2°55.897 110 4 291 -999
2008-02-25 07:40:08 51°13.691 2°55.805 92.2 3.3 276 -999
2008-02-25 07:41:07 51°13.692 2°55.742 81.3 1.3 270 11.3
2008-02-25 07:42:08 51°13.705 2°55.747 27.7 2 17 -999
2008-02-25 07:43:07 51°13.765 2°55.709 326 5.7 324 8.6
2008-02-25 07:44:07 51°13.862 2°55.616 333 7.4 333 10.3
2008-02-25 07:45:07 51°13.976 2°55.53 336 7.5 335 10.7
2008-02-25 07:46:07 51°14.076 2°55.458 336.2 5.8 336 10.7
2008-02-25 07:47:07 51°14.176 2°55.375 329.8 8.3 327 10.8
2008-02-25 07:48:07 51°14.295 2°55.209 314 10.4 310 11
2008-02-25 07:49:07 51°14.396 2°54.965 300.4 12 300 9.5
2008-02-25 07:50:07 51°14.547 2°54.737 326.5 12.7 320 9.2
2008-02-25 07:51:07 51°14.715 2°54.535 330.2 12.6 325 9
2008-02-25 07:52:07 51°14.886 2°54.345 330.9 12.6 326 8.7
2008-02-25 07:53:07 51°15.059 2°54.17 335.1 12.2 329 7.9
2008-02-25 07:54:07 51°15.237 2°54.003 335.4 12.4 331 8.5
2008-02-25 07:55:07 51°15.421 2°53.852 341.4 12.5 333 9.1
2008-02-25 07:56:07 51°15.602 2°53.688 338.1 12.6 331 9.6
2008-02-25 07:57:07 51°15.787 2°53.53 338.9 12.6 332 10.2
2008-02-25 07:58:07 51°15.972 2°53.369 338.4 12.7 330 10.6
2008-02-25 07:59:07 51°16.156 2°53.208 340.9 12.6 334 10.7
2008-02-25 08:00:07 51°16.344 2°53.06 339.6 12.6 334 10.9
2008-02-25 08:01:07 51°16.532 2°52.914 340.2 12.6 335 10.7
2008-02-25 08:02:07 51°16.72 2°52.769 339.1 12.5 334 10
2008-02-25 08:03:07 51°16.908 2°52.632 341.4 12.4 336 8.7
2008-02-25 08:04:07 51°17.096 2°52.494 339 12.4 333 8.8
2008-02-25 08:05:07 51°17.283 2°52.348 339.6 12.5 335 9.4
2008-02-25 08:06:07 51°17.445 2°52.142 317.6 12.8 308 9.7
2008-02-25 08:07:07 51°17.548 2°51.843 302.4 12.9 299 9.3
2008-02-25 08:08:07 51°17.654 2°51.544 302.6 12.9 296 8.8
2008-02-25 08:09:07 51°17.747 2°51.232 300.2 13.1 296 9.2
2008-02-25 08:10:07 51°17.846 2°50.919 301.9 13.3 298 10.4
2008-02-25 08:11:07 51°17.948 2°50.606 301.9 13.3 297 11.6
2008-02-25 08:12:07 51°18.048 2°50.289 301.4 13.4 296 12.6
2008-02-25 08:13:07 51°18.146 2°49.967 299 13.5 289 13
2008-02-25 08:14:07 51°18.216 2°49.628 292.4 13.4 289 12.4
2008-02-25 08:15:07 51°18.289 2°49.291 293.3 13.5 290 10.6
2008-02-25 08:16:07 51°18.362 2°48.954 291.7 13.5 289 9.5
2008-02-25 08:17:07 51°18.436 2°48.615 292.4 13.6 290 10
2008-02-25 08:18:07 51°18.514 2°48.275 290.9 13.7 287 11.1
2008-02-25 08:19:07 51°18.575 2°47.926 289.8 13.6 288 13.4
2008-02-25 08:20:07 51°18.641 2°47.579 290.1 13.7 287 15.8
2008-02-25 08:21:07 51°18.704 2°47.232 290.2 13.6 286 17.2
2008-02-25 08:22:07 51°18.766 2°46.885 290.1 13.6 286 18.2
2008-02-25 08:23:07 51°18.829 2°46.538 291 13.6 286 19.9
2008-02-25 08:24:07 51°18.897 2°46.194 294.7 13.5 291 20.2
2008-02-25 08:25:07 51°18.972 2°45.853 294.3 13.6 290 19.6
2008-02-25 08:26:07 51°19.048 2°45.51 294.4 13.7 290 16.6
2008-02-25 08:27:07 51°19.127 2°45.166 295.1 13.8 291 12
2008-02-25 08:28:07 51°19.208 2°44.821 293.3 14.1 290 12.3
2008-02-25 08:29:07 51°19.291 2°44.475 294.9 13.7 292 20.5
2008-02-25 08:30:07 51°19.371 2°44.137 294.6 13.6 290 21.9
2008-02-25 08:31:07 51°19.45 2°43.801 294.1 13.5 291 22.8
2008-02-25 08:32:07 51°19.528 2°43.465 294.4 13.5 290 23.8
2008-02-25 08:33:07 51°19.602 2°43.125 293.2 13.6 290 24.3
2008-02-25 08:34:07 51°19.68 2°42.786 293.8 13.6 290 24.2
2008-02-25 08:35:07 51°19.756 2°42.446 293.9 13.6 290 24
2008-02-25 08:36:07 51°19.833 2°42.105 293.1 13.7 290 22.3
2008-02-25 08:37:07 51°19.91 2°41.763 293.9 13.6 291 18
2008-02-25 08:38:07 51°19.986 2°41.42 293.3 13.8 289 18.3
2008-02-25 08:39:07 51°20.062 2°41.075 293.6 13.7 290 21.8
2008-02-25 08:40:07 51°20.124 2°40.723 282.5 13.8 280 25.3
2008-02-25 08:41:07 51°20.169 2°40.365 285.1 13.8 282 27.6
2008-02-25 08:42:07 51°20.216 2°40.007 285.1 13.8 281 27
2008-02-25 08:43:07 51°20.263 2°39.648 285.6 13.7 282 26.2
2008-02-25 08:44:07 51°20.311 2°39.29 285.6 13.8 282 24.1
2008-02-25 08:45:07 51°20.359 2°38.93 285.1 13.9 282 23.4
2008-02-25 08:46:07 51°20.41 2°38.57 284.4 13.8 282 23.5
2008-02-25 08:47:07 51°20.46 2°38.208 285.3 14 282 22.4
2008-02-25 08:48:07 51°20.511 2°37.845 285 14 282 22.5
2008-02-25 08:49:07 51°20.561 2°37.481 284.5 14.1 283 21.8
2008-02-25 08:50:07 51°20.613 2°37.116 285.7 14.1 282 22.2
2008-02-25 08:51:07 51°20.66 2°36.753 284.9 14 280 20.3
2008-02-25 08:52:07 51°20.708 2°36.388 285.1 14.1 282 20
2008-02-25 08:53:07 51°20.756 2°36.022 284.8 14.1 282 22.8
2008-02-25 08:54:07 51°20.804 2°35.657 285 14 281 24.4
2008-02-25 08:55:07 51°20.852 2°35.292 285 14.1 282 29
2008-02-25 08:56:07 51°20.899 2°34.926 285.3 14 283 30.4
2008-02-25 08:57:07 51°20.964 2°34.575 297.2 13.5 298 30.4
2008-02-25 08:58:07 51°21.122 2°34.353 339.3 12.2 333 29.9
2008-02-25 08:59:07 51°21.313 2°34.295 3 11.8 353 29.1
2008-02-25 09:00:07 51°21.513 2°34.258 0.6 12.2 353 29.8
2008-02-25 09:01:07 51°21.717 2°34.215 0.8 12.4 352 29.5
2008-02-25 09:02:07 51°21.921 2°34.165 359.9 12.5 351 26.4
2008-02-25 09:03:07 51°22.13 2°34.115 359 12.7 351 24.6
2008-02-25 09:04:07 51°22.336 2°34.046 347.7 12.8 338 23.5
2008-02-25 09:05:07 51°22.494 2°33.807 307.6 13.9 299 30
2008-02-25 09:06:07 51°22.551 2°33.44 283.7 14.5 281 30.5
2008-02-25 09:07:07 51°22.599 2°33.063 285.4 14.5 282 30.2
2008-02-25 09:08:07 51°22.644 2°32.685 282.6 14.5 279 31.2
2008-02-25 09:09:07 51°22.68 2°32.303 280 14.5 278 30.4
2008-02-25 09:10:07 51°22.71 2°31.917 279.5 14.6 279 31
2008-02-25 09:11:07 51°22.72 2°31.528 270.7 14.7 270 28.5
2008-02-25 09:12:07 51°22.713 2°31.135 271.4 14.8 268 29.2
2008-02-25 09:13:07 51°22.707 2°30.741 272 14.8 268 29.9
2008-02-25 09:14:07 51°22.702 2°30.351 271.4 14.5 268 31.5
2008-02-25 09:15:07 51°22.695 2°29.962 272.1 14.7 268 31.6
2008-02-25 09:16:07 51°22.688 2°29.572 271.8 14.7 268 31.9
2008-02-25 09:17:07 51°22.681 2°29.181 272.7 14.8 268 32.3
2008-02-25 09:18:07 51°22.674 2°28.792 269.9 14.7 268 32.4
2008-02-25 09:19:07 51°22.657 2°28.399 269 14.8 267 32.6
2008-02-25 09:20:07 51°22.638 2°28.004 268.8 14.9 266 33.5
2008-02-25 09:21:07 51°22.62 2°27.609 268.9 14.9 266 34
2008-02-25 09:22:07 51°22.6 2°27.215 269.4 14.9 265 33.2
2008-02-25 09:23:07 51°22.581 2°26.824 269.9 14.7 265 32.5
2008-02-25 09:24:07 51°22.58 2°26.438 282.1 14.4 277 32.1
2008-02-25 09:25:07 51°22.665 2°26.095 309.1 13.6 305 27.5
2008-02-25 09:26:07 51°22.804 2°25.803 316 13.9 308 17.4
2008-02-25 09:27:07 51°22.965 2°25.558 339 12.7 336 23.3
2008-02-25 09:28:07 51°23.164 2°25.513 10.9 12.2 1 29
2008-02-25 09:29:07 51°23.367 2°25.541 11.8 12.3 5 31.7
2008-02-25 09:30:07 51°23.572 2°25.561 11 12.4 2 32.5
2008-02-25 09:31:07 51°23.777 2°25.576 9.7 12.3 3 33.1
2008-02-25 09:32:07 51°23.982 2°25.59 10.1 12.4 2 32.6
2008-02-25 09:33:07 51°24.187 2°25.613 10.9 12.4 4 33
2008-02-25 09:34:07 51°24.391 2°25.636 10.8 12.2 4 32.7
2008-02-25 09:35:07 51°24.592 2°25.659 10.7 12.1 6 35.4
2008-02-25 09:36:07 51°24.793 2°25.681 10.6 12 3 35.6
2008-02-25 09:37:08 51°24.995 2°25.704 10.4 12 4 33.9
2008-02-25 09:38:08 51°25.193 2°25.723 10.2 11.8 4 32.9
2008-02-25 09:39:08 51°25.389 2°25.74 10.1 11.8 3 32.5
2008-02-25 09:40:08 51°25.584 2°25.758 10.3 11.7 5 32.7
2008-02-25 09:41:08 51°25.779 2°25.775 9.7 11.6 4 30
2008-02-25 09:42:08 51°25.973 2°25.791 10.1 11.7 3 26.2
2008-02-25 09:43:08 51°26.166 2°25.809 9.8 11.7 1 25.9
2008-02-25 09:44:08 51°26.361 2°25.827 10.1 11.7 5 23.9
2008-02-25 09:45:08 51°26.556 2°25.848 10.3 11.7 5 25.4
2008-02-25 09:46:08 51°26.752 2°25.87 10.5 11.9 3 30.8
2008-02-25 09:47:08 51°26.949 2°25.892 10.4 11.9 4 33.1
2008-02-25 09:48:08 51°27.147 2°25.913 10.2 12 4 33
2008-02-25 09:49:08 51°27.344 2°25.936 10.2 11.9 5 33.3
2008-02-25 09:50:08 51°27.543 2°25.96 10.7 11.9 4 33.5
2008-02-25 09:51:08 51°27.741 2°25.985 10 11.9 6 33.4
2008-02-25 09:52:07 51°27.935 2°26.011 10.8 11.9 6 33.5
2008-02-25 09:53:07 51°28.133 2°26.01 2.1 12.1 351 34.8
2008-02-25 09:54:07 51°28.333 2°25.976 0.9 12.1 354 34.7
2008-02-25 09:55:08 51°28.529 2°25.883 342.7 12.5 335 34.8
2008-02-25 09:56:08 51°28.716 2°25.744 343.1 12.4 336 35.9
2008-02-25 09:57:08 51°28.905 2°25.611 344 12.4 336 31.9
2008-02-25 09:58:08 51°29.091 2°25.48 344.5 12.3 337 31.9
2008-02-25 09:59:08 51°29.279 2°25.355 343.7 12.2 337 30.5
2008-02-25 10:00:07 51°29.463 2°25.228 343.9 12.3 336 26.1
2008-02-25 10:01:07 51°29.65 2°25.102 343.2 12.3 337 27.6
2008-02-25 10:02:07 51°29.841 2°24.98 344.2 12.4 337 33.1
2008-02-25 10:03:07 51°30.028 2°24.844 344 12.3 335 35.1
2008-02-25 10:04:07 51°30.218 2°24.768 359.9 11.6 353 39.2
2008-02-25 10:05:07 51°30.391 2°24.846 28.5 11 23 38.9
2008-02-25 10:06:08 51°30.561 2°24.966 27.1 10.8 25 38.6
2008-02-25 10:07:07 51°30.722 2°25.086 29.7 10.9 26 38.9
2008-02-25 10:08:07 51°30.885 2°25.212 28.6 10.8 26 38.4
2008-02-25 10:09:08 51°31.049 2°25.345 29.9 10.9 30 40
2008-02-25 10:10:08 51°31.211 2°25.482 30.4 10.9 27 39.3
2008-02-25 10:11:08 51°31.371 2°25.62 32.7 10.8 30 36.6
2008-02-25 10:12:08 51°31.527 2°25.766 32.4 10.8 30 39.8
2008-02-25 10:13:07 51°31.681 2°25.908 32.4 10.9 29 39.8
2008-02-25 10:14:07 51°31.839 2°26.053 32.7 11 30 39.5
2008-02-25 10:15:08 51°32 2°26.199 32.9 10.9 30 38.5
2008-02-25 10:16:08 51°32.158 2°26.344 32.9 10.9 30 38.7
2008-02-25 10:17:08 51°32.318 2°26.487 32.5 11 28 38.4
2008-02-25 10:18:08 51°32.478 2°26.631 32.7 11 28 34.3
2008-02-25 10:19:08 51°32.638 2°26.776 32.6 11.1 32 37.5
2008-02-25 10:20:08 51°32.794 2°26.931 34.2 11.1 33 37.9
2008-02-25 10:21:08 51°32.954 2°27.082 32.7 11.1 31 37.8
2008-02-25 10:22:07 51°33.111 2°27.23 33.7 11 30 38
2008-02-25 10:23:07 51°33.27 2°27.378 33.3 11 31 36
2008-02-25 10:24:07 51°33.429 2°27.527 33.3 11 30 38.2
2008-02-25 10:25:07 51°33.588 2°27.676 33.7 11.1 28 35.6
2008-02-25 10:26:07 51°33.745 2°27.825 33.3 11.1 30 37.1
2008-02-25 10:27:08 51°33.907 2°27.976 33.7 11 31 36.9
2008-02-25 10:28:07 51°34.064 2°28.122 33.9 11.1 30 31.9
2008-02-25 10:29:07 51°34.224 2°28.273 33.9 11.1 31 34.4
2008-02-25 10:30:08 51°34.386 2°28.426 33.3 11.1 31 31.3
2008-02-25 10:31:08 51°34.544 2°28.577 33.3 11 31 35
2008-02-25 10:32:07 51°34.701 2°28.725 33.5 11.1 31 33.8
2008-02-25 10:33:08 51°34.861 2°28.878 33 10.9 31 34.1
2008-02-25 10:34:07 51°35.017 2°29.026 33.5 11 30 28.9
2008-02-25 10:35:08 51°35.176 2°29.179 32.6 10.9 32 31.9
2008-02-25 10:36:08 51°35.329 2°29.338 35.5 11 33 34.7
2008-02-25 10:37:08 51°35.481 2°29.498 35.2 10.9 33 30.2
2008-02-25 10:38:07 51°35.632 2°29.655 35.1 10.9 34 36.8
2008-02-25 10:39:07 51°35.783 2°29.814 35.1 10.9 33 35.7
2008-02-25 10:40:07 51°35.936 2°29.969 33.4 10.9 32 34.9
2008-02-25 10:41:07 51°36.09 2°30.124 33.9 10.9 33 36.5
2008-02-25 10:42:08 51°36.245 2°30.283 34.5 11 34 35.9
2008-02-25 10:43:07 51°36.394 2°30.438 34.6 10.7 33 35.2
2008-02-25 10:44:07 51°36.546 2°30.594 34.2 10.8 35 35.1
2008-02-25 10:45:07 51°36.697 2°30.752 33.9 10.8 32 36.1
2008-02-25 10:46:07 51°36.849 2°30.91 35 10.8 33 36.7
2008-02-25 10:47:08 51°37.002 2°31.07 34 10.8 32 37.5
2008-02-25 10:48:07 51°37.151 2°31.227 34.7 10.9 32 38.4
2008-02-25 10:49:08 51°37.305 2°31.386 34.7 10.8 33 38.7
2008-02-25 10:50:07 51°37.453 2°31.54 34.7 10.9 32 38.8
2008-02-25 10:51:08 51°37.608 2°31.7 33.9 10.9 32 38.7
2008-02-25 10:52:07 51°37.758 2°31.856 34.7 10.9 33 38.4
2008-02-25 10:53:08 51°37.912 2°32.015 34 10.9 33 40.4
2008-02-25 10:54:08 51°38.065 2°32.171 34.1 11 32 39.9
2008-02-25 10:55:08 51°38.218 2°32.328 34.2 11 32 40.7
2008-02-25 10:56:08 51°38.372 2°32.489 34.7 11 31 40.8
2008-02-25 10:57:08 51°38.526 2°32.648 34.7 11 33 41.4
2008-02-25 10:58:08 51°38.681 2°32.807 33.5 11.1 33 42.2
2008-02-25 10:59:08 51°38.837 2°32.968 33.6 11 33 41.6
2008-02-25 11:00:08 51°38.992 2°33.129 34.8 11.1 34 41.8
2008-02-25 11:01:08 51°39.146 2°33.29 34 11.1 33 40.9
2008-02-25 11:02:08 51°39.3 2°33.454 35.1 11.1 33 40.3
2008-02-25 11:03:08 51°39.455 2°33.618 34.4 11.2 33 41.8
2008-02-25 11:04:08 51°39.612 2°33.785 34.3 11.3 35 41.6
2008-02-25 11:05:08 51°39.77 2°33.95 34.7 11.3 34 42.8
2008-02-25 11:06:08 51°39.928 2°34.116 34.7 11.3 33 38.8
2008-02-25 11:07:08 51°40.086 2°34.279 34.3 11.4 32 37.5
2008-02-25 11:08:07 51°40.242 2°34.443 34.5 11.3 33 37.2
2008-02-25 11:09:07 51°40.399 2°34.608 34.4 11.4 33 36.3
2008-02-25 11:10:07 51°40.556 2°34.773 34.5 11.2 34 35
2008-02-25 11:11:07 51°40.714 2°34.937 33.9 11.4 32 36.3
2008-02-25 11:12:08 51°40.873 2°35.102 34.7 11.2 32 35
2008-02-25 11:13:08 51°41.031 2°35.265 34 11.4 32 31.5
2008-02-25 11:14:08 51°41.189 2°35.426 34 11.2 33 35
2008-02-25 11:15:08 51°41.343 2°35.596 38.5 11.2 42 31.9
2008-02-25 11:16:08 51°41.419 2°35.862 77.7 11.5 92 25.8
2008-02-25 11:17:07 51°41.319 2°36.132 116 12.2 123 20.1
2008-02-25 11:18:08 51°41.21 2°36.415 112.4 12.3 122 18.9
2008-02-25 11:19:07 51°41.106 2°36.693 112.2 12.4 119 29.1
2008-02-25 11:20:08 51°41 2°36.991 111.4 12.7 120 32.8
2008-02-25 11:21:08 51°40.894 2°37.283 112.5 12.7 121 38.1
2008-02-25 11:22:08 51°40.787 2°37.576 112.7 12.6 119 38.9
2008-02-25 11:23:08 51°40.68 2°37.869 112.4 12.8 120 38.5
2008-02-25 11:24:08 51°40.574 2°38.162 112.9 12.6 119 42.5
2008-02-25 11:25:08 51°40.464 2°38.453 112.4 12.7 123 39.8
2008-02-25 11:26:08 51°40.358 2°38.743 112.6 12.6 121 41.7
2008-02-25 11:27:07 51°40.256 2°39.028 112.6 12.5 120 43.1
2008-02-25 11:28:07 51°40.15 2°39.319 111.7 12.7 122 41.2
2008-02-25 11:29:08 51°40.044 2°39.613 111.6 12.7 121 38.8
2008-02-25 11:30:08 51°39.94 2°39.902 112.5 12.4 122 35.3
2008-02-25 11:31:08 51°39.836 2°40.191 112.7 12.5 121 38.8
2008-02-25 11:32:08 51°39.734 2°40.481 111.9 12.5 120 29.6
2008-02-25 11:33:08 51°39.629 2°40.77 112.2 12.4 119 34.1
2008-02-25 11:34:08 51°39.528 2°41.06 111.4 12.4 120 30.9
2008-02-25 11:35:08 51°39.424 2°41.342 112.6 12.2 118 26.9
2008-02-25 11:36:08 51°39.324 2°41.626 112.3 12.4 120 23.6
2008-02-25 11:37:08 51°39.213 2°41.906 122.4 12.4 131 25.6
2008-02-25 11:38:07 51°39.031 2°42.043 155.7 12.8 163 25.2
2008-02-25 11:39:07 51°38.814 2°42.119 166.1 13.6 171 28.3
2008-02-25 11:40:07 51°38.592 2°42.177 164.4 13.7 170 28.8
2008-02-25 11:41:07 51°38.367 2°42.232 165.4 13.7 173 32
2008-02-25 11:42:07 51°38.139 2°42.271 171.9 13.9 180 33.1
2008-02-25 11:43:07 51°37.908 2°42.234 186.2 14.1 191 34.3
2008-02-25 11:44:07 51°37.677 2°42.167 185.5 14.1 191 34.3
2008-02-25 11:45:07 51°37.455 2°42.045 196.6 14.1 202 33.8
2008-02-25 11:46:07 51°37.287 2°41.795 242.9 13.9 244 31.7
2008-02-25 11:47:07 51°37.279 2°41.435 283.4 13.7 278 18.1
2008-02-25 11:48:07 51°37.303 2°41.061 280.8 14.1 279 22.4
2008-02-25 11:49:07 51°37.324 2°40.688 280.1 14 275 21.8
2008-02-25 11:50:07 51°37.345 2°40.316 278.8 13.8 275 26.5
2008-02-25 11:51:07 51°37.363 2°39.948 278.4 13.7 275 32.8
2008-02-25 11:52:07 51°37.379 2°39.581 278.5 13.8 274 36.1
2008-02-25 11:53:07 51°37.392 2°39.214 277.9 13.7 273 39.6
2008-02-25 11:54:07 51°37.404 2°38.848 277.7 13.8 273 41.7
2008-02-25 11:55:07 51°37.417 2°38.483 277.8 13.7 274 39.6
2008-02-25 11:56:07 51°37.427 2°38.115 277.3 13.6 272 38.9
2008-02-25 11:57:07 51°37.438 2°37.75 278.3 13.7 272 38.1
2008-02-25 11:58:07 51°37.45 2°37.385 277.3 13.7 273 33.7
2008-02-25 11:59:07 51°37.46 2°37.02 277.1 13.7 273 40.3
2008-02-25 12:00:07 51°37.471 2°36.655 277.3 13.7 272 40.1
2008-02-25 12:01:07 51°37.481 2°36.29 277.5 13.7 272 39
2008-02-25 12:02:07 51°37.489 2°35.924 277.6 13.7 273 38.7
2008-02-25 12:03:07 51°37.497 2°35.556 277.6 13.8 273 37.4
2008-02-25 12:04:07 51°37.506 2°35.187 277.8 13.7 272 32.9
2008-02-25 12:05:07 51°37.517 2°34.819 277.6 13.8 275 27.7
2008-02-25 12:06:07 51°37.531 2°34.447 277.2 14 272 18.5
2008-02-25 12:07:07 51°37.503 2°34.094 252.8 12.9 248 27.2
2008-02-25 12:08:07 51°37.369 2°33.84 215.3 12.3 210 33
2008-02-25 12:09:07 51°37.177 2°33.702 199.5 12.9 204 33.9
2008-02-25 12:10:07 51°36.976 2°33.568 196.1 13.1 201 33.4
2008-02-25 12:11:07 51°36.771 2°33.443 196.3 13.2 199 34.1
2008-02-25 12:12:07 51°36.566 2°33.327 195.7 13.1 200 35.7
2008-02-25 12:13:07 51°36.36 2°33.21 195.2 13.1 200 35.7
2008-02-25 12:14:07 51°36.154 2°33.103 193.6 13 196 36.3
2008-02-25 12:15:07 51°35.946 2°32.995 194.4 13.2 197 36.2
2008-02-25 12:16:07 51°35.739 2°32.888 194.6 13 198 37.5
2008-02-25 12:17:07 51°35.532 2°32.781 193.9 13.1 197 37.4
2008-02-25 12:18:07 51°35.325 2°32.675 193.7 12.9 197 37.3
2008-02-25 12:19:07 51°35.117 2°32.579 191.9 13.2 196 37.1
2008-02-25 12:20:07 51°34.909 2°32.485 192.5 13 195 35.5
2008-02-25 12:21:07 51°34.702 2°32.39 192 13 195 33.8
2008-02-25 12:22:07 51°34.494 2°32.297 192.4 12.9 195 31.5
2008-02-25 12:23:07 51°34.288 2°32.205 191.9 12.8 196 30.3
2008-02-25 12:24:07 51°34.081 2°32.114 192.2 12.9 196 27
2008-02-25 12:25:08 51°33.87 2°32.018 192.1 12.8 195 28.7
2008-02-25 12:26:07 51°33.665 2°31.926 192.3 13.1 195 28
2008-02-25 12:27:07 51°33.457 2°31.836 192.5 12.9 194 29
2008-02-25 12:28:07 51°33.249 2°31.748 191.5 12.9 195 27.5
2008-02-25 12:29:07 51°33.041 2°31.66 191.6 12.9 195 28.2
2008-02-25 12:30:07 51°32.834 2°31.574 192.3 12.8 195 28
2008-02-25 12:31:07 51°32.625 2°31.506 185.7 12.8 186 26.7
2008-02-25 12:32:07 51°32.415 2°31.538 160.2 12.6 164 25.6
2008-02-25 12:33:07 51°32.21 2°31.627 161.1 12.9 166 28.8
2008-02-25 12:34:07 51°32.004 2°31.713 161.8 12.9 165 34.2
2008-02-25 12:35:07 51°31.798 2°31.801 159.8 12.6 162 35.8
2008-02-25 12:36:07 51°31.597 2°31.901 159.3 12.6 162 36.4
2008-02-25 12:37:07 51°31.398 2°32.007 156 12.6 160 36.8
2008-02-25 12:38:07 51°31.203 2°32.122 153.5 12.5 159 36.2
2008-02-25 12:39:07 51°31.008 2°32.244 153.8 12.5 159 35.5
2008-02-25 12:40:07 51°30.818 2°32.376 150 12.4 152 35.9
2008-02-25 12:41:07 51°30.634 2°32.524 148.2 12.4 151 34.3
2008-02-25 12:42:07 51°30.452 2°32.68 148 12.3 151 29
2008-02-25 12:43:07 51°30.274 2°32.847 144 12.4 148 24.3
2008-02-25 12:44:07 51°30.114 2°33.05 132.3 12.3 134 23.2
2008-02-25 12:45:07 51°29.992 2°33.307 117.8 12 120 20.4
2008-02-25 12:46:08 51°29.952 2°33.617 93.1 11.8 95 18.3
2008-02-25 12:47:08 51°29.942 2°33.933 88.9 11.9 93 21.4
2008-02-25 12:48:08 51°29.926 2°34.249 89 11.9 95 33
2008-02-25 12:49:07 51°29.911 2°34.559 88.9 11.9 95 37.9
2008-02-25 12:50:07 51°29.897 2°34.874 89.1 11.8 94 39.8
2008-02-25 12:51:07 51°29.887 2°35.188 88.9 11.9 93 40.5
2008-02-25 12:52:07 51°29.877 2°35.503 89.8 11.8 93 40.8
2008-02-25 12:53:07 51°29.868 2°35.82 89.1 11.9 91 37.2
2008-02-25 12:54:07 51°29.86 2°36.14 89.9 12.1 92 33.4
2008-02-25 12:55:07 51°29.853 2°36.462 89.2 12.1 91 30.9
2008-02-25 12:56:07 51°29.844 2°36.786 89.8 12.1 93 28.2
2008-02-25 12:57:07 51°29.836 2°37.109 89.8 12.1 93 27.4
2008-02-25 12:58:07 51°29.821 2°37.431 92.1 12.1 98 25.9
2008-02-25 12:59:07 51°29.724 2°37.71 129.1 12.3 140 36.4
2008-02-25 13:00:07 51°29.532 2°37.838 157.3 12.7 161 38.6
2008-02-25 13:01:07 51°29.328 2°37.935 160.2 12.7 164 38.5
2008-02-25 13:02:07 51°29.126 2°38.034 160.4 12.7 162 38.2
2008-02-25 13:03:07 51°28.923 2°38.133 160.8 12.7 163 36.6
2008-02-25 13:04:07 51°28.722 2°38.234 159.6 12.6 162 39.5
2008-02-25 13:05:07 51°28.522 2°38.336 160.4 12.6 162 39.2
2008-02-25 13:06:07 51°28.324 2°38.442 159.9 12.6 163 39
2008-02-25 13:07:07 51°28.127 2°38.549 160.2 12.5 161 38.4
2008-02-25 13:08:07 51°27.932 2°38.658 160 12.4 162 35.1
2008-02-25 13:09:07 51°27.737 2°38.77 160.8 12.6 160 35
2008-02-25 13:10:07 51°27.542 2°38.89 155.2 12.6 155 34.5
2008-02-25 13:11:07 51°27.354 2°39.034 154.5 12.6 155 35.9
2008-02-25 13:12:07 51°27.164 2°39.175 154.3 12.5 154 35.3
2008-02-25 13:13:07 51°26.976 2°39.318 154.3 12.7 155 34.4
2008-02-25 13:14:07 51°26.789 2°39.463 154.3 12.4 153 33.9
2008-02-25 13:15:07 51°26.604 2°39.606 154.8 12.4 154 34.9
2008-02-25 13:16:07 51°26.42 2°39.755 153.8 12.3 155 33.3
2008-02-25 13:17:07 51°26.237 2°39.902 154.6 12.4 153 32.9
2008-02-25 13:18:07 51°26.045 2°39.998 167.7 12.2 168 32.5
2008-02-25 13:19:07 51°25.849 2°40.067 165.2 11.8 162 32
2008-02-25 13:20:07 51°25.662 2°40.175 159.4 12 159 32.1
2008-02-25 13:21:07 51°25.475 2°40.285 159.6 12 159 29.2
2008-02-25 13:22:07 51°25.287 2°40.401 159.1 12.1 159 30.3
2008-02-25 13:23:07 51°25.1 2°40.522 158.9 12.1 158 29.3
2008-02-25 13:24:07 51°24.912 2°40.644 159.2 12.1 159 28.9
2008-02-25 13:25:07 51°24.726 2°40.77 159.3 12.2 157 28.8
2008-02-25 13:26:07 51°24.538 2°40.894 159.7 12.3 157 29
2008-02-25 13:27:07 51°24.351 2°41.019 159.3 12.2 156 30.3
2008-02-25 13:28:07 51°24.158 2°41.112 169.8 12.1 167 30.4
2008-02-25 13:29:07 51°23.96 2°41.174 173.2 12.2 171 32
2008-02-25 13:30:07 51°23.762 2°41.225 172.8 12 169 31.6
2008-02-25 13:31:07 51°23.564 2°41.269 177.2 11.9 174 31.4
2008-02-25 13:32:07 51°23.367 2°41.304 176.7 11.9 174 31.9
2008-02-25 13:33:07 51°23.171 2°41.343 176 11.9 172 30.9
2008-02-25 13:34:07 51°22.977 2°41.382 176.6 11.8 172 30.9
2008-02-25 13:35:07 51°22.782 2°41.419 176.9 11.9 171 31.5
2008-02-25 13:36:07 51°22.587 2°41.456 176 11.8 173 30.9
2008-02-25 13:37:07 51°22.393 2°41.494 176 11.7 173 26.4
2008-02-25 13:38:07 51°22.199 2°41.531 175.5 11.7 173 28.7
2008-02-25 13:39:07 51°22.005 2°41.569 176.5 11.7 172 29.6
2008-02-25 13:40:07 51°21.811 2°41.606 176.2 11.7 174 28.6
2008-02-25 13:41:07 51°21.617 2°41.646 176.4 11.7 172 29
2008-02-25 13:42:07 51°21.423 2°41.688 176.6 11.7 172 28.8
2008-02-25 13:43:07 51°21.229 2°41.731 176.3 11.8 172 27.2
2008-02-25 13:44:07 51°21.036 2°41.773 176.3 11.7 171 27
2008-02-25 13:45:07 51°20.842 2°41.813 176.6 11.8 172 23.9
2008-02-25 13:46:08 51°20.652 2°41.913 163.2 12 156 20.8
2008-02-25 13:47:08 51°20.5 2°42.129 132 12.7 125 21.7
2008-02-25 13:48:08 51°20.385 2°42.414 128.2 12.5 125 23.7
2008-02-25 13:49:08 51°20.295 2°42.713 117.9 12.5 113 26.6
2008-02-25 13:50:07 51°20.212 2°43.01 119.1 12.5 113 28.7
2008-02-25 13:51:07 51°20.127 2°43.31 119.7 12.4 115 29.1
2008-02-25 13:52:07 51°20.04 2°43.609 118.9 12.4 115 28.8
2008-02-25 13:53:07 51°19.952 2°43.907 120 12.5 116 29.3
2008-02-25 13:54:07 51°19.865 2°44.206 119.8 12.4 114 27.3
2008-02-25 13:55:07 51°19.779 2°44.506 119.7 12.5 114 26.3
2008-02-25 13:56:07 51°19.689 2°44.812 120.9 12.9 114 24.8
2008-02-25 13:57:07 51°19.593 2°45.124 121.2 13.2 117 20.7
2008-02-25 13:58:07 51°19.493 2°45.442 121.8 13.6 117 14.3
2008-02-25 13:59:07 51°19.389 2°45.765 121.5 13.6 118 17.8
2008-02-25 14:00:07 51°19.288 2°46.088 122.1 13.5 116 21.5
2008-02-25 14:01:07 51°19.187 2°46.404 121.5 13.4 118 23.9
2008-02-25 14:02:07 51°19.088 2°46.722 120.7 13.3 117 24.1
2008-02-25 14:03:07 51°18.987 2°47.034 120.4 13.2 117 23.5
2008-02-25 14:04:07 51°18.888 2°47.347 121.2 13.3 115 21.9
2008-02-25 14:05:07 51°18.789 2°47.66 121.1 13.1 118 19.6
2008-02-25 14:06:07 51°18.69 2°47.972 121 13.1 117 17.7
2008-02-25 14:07:07 51°18.592 2°48.287 121.4 13.3 116 16
2008-02-25 14:08:07 51°18.495 2°48.608 119.7 13.5 116 13.4
2008-02-25 14:09:07 51°18.407 2°48.936 115.7 13.6 112 13.7
2008-02-25 14:10:07 51°18.323 2°49.272 116.8 13.7 111 14
2008-02-25 14:11:07 51°18.24 2°49.609 116.2 13.5 111 16.2
2008-02-25 14:12:07 51°18.157 2°49.939 117.1 13.3 112 16.9
2008-02-25 14:13:07 51°18.076 2°50.271 116.5 13.6 111 16.7
2008-02-25 14:14:07 51°17.996 2°50.605 116.6 13.5 112 15.8
2008-02-25 14:15:07 51°17.913 2°50.936 118.9 13.4 114 14.8
2008-02-25 14:16:07 51°17.819 2°51.26 119 13.4 117 13.3
2008-02-25 14:17:07 51°17.711 2°51.568 127.5 13.2 122 13
2008-02-25 14:18:07 51°17.576 2°51.835 138.5 12.7 134 13.4
2008-02-25 14:19:07 51°17.426 2°52.075 144.1 12.4 143 13.6
2008-02-25 14:20:07 51°17.249 2°52.236 162.4 12.3 156 13.6
2008-02-25 14:21:07 51°17.064 2°52.369 162.5 12.2 155 13
2008-02-25 14:22:07 51°16.882 2°52.504 161 11.8 156 13.1
2008-02-25 14:23:07 51°16.7 2°52.64 161.5 12.1 154 13.5
2008-02-25 14:24:07 51°16.517 2°52.784 161.8 12.1 154 14.8
2008-02-25 14:25:08 51°16.333 2°52.925 161.5 12.3 154 14.8
2008-02-25 14:26:08 51°16.151 2°53.066 161.7 12.2 154 14.8
2008-02-25 14:27:08 51°15.968 2°53.211 161.9 12.2 153 14.6
2008-02-25 14:28:08 51°15.787 2°53.358 161.1 12.2 153 14.2
2008-02-25 14:29:08 51°15.606 2°53.503 161.7 12.2 153 13.8
2008-02-25 14:30:08 51°15.425 2°53.646 162 12.2 153 13.3
2008-02-25 14:31:08 51°15.248 2°53.795 159.3 11.8 153 12.8
2008-02-25 14:32:08 51°15.073 2°53.955 156.7 12.3 149 12.4
2008-02-25 14:33:08 51°14.901 2°54.136 150.9 12.4 144 12.2
2008-02-25 14:34:08 51°14.737 2°54.332 149.7 12.2 141 13
2008-02-25 14:35:08 51°14.582 2°54.548 145.1 12.4 134 13.4
2008-02-25 14:36:08 51°14.453 2°54.818 132.4 12.9 125 13.8
2008-02-25 14:37:08 51°14.337 2°55.106 128.8 12.5 132 14.7
2008-02-25 14:38:08 51°14.198 2°55.339 137.8 11 145 14.5
2008-02-25 14:39:08 51°14.092 2°55.438 153.6 5.6 154 13
2008-02-25 14:40:08 51°14.021 2°55.496 153.4 4.6 152 14.4
2008-02-25 14:41:08 51°13.953 2°55.549 156.3 4.6 155 14.1
2008-02-25 14:42:08 51°13.88 2°55.599 156.6 4.9 157 14
2008-02-25 14:43:08 51°13.806 2°55.653 153.4 4.8 152 14.1
2008-02-25 14:44:08 51°13.742 2°55.731 135.9 5 136 13.7
2008-02-25 14:45:09 51°13.692 2°55.828 116.5 4.3 118 -999
2008-02-25 14:46:09 51°13.672 2°55.916 106.8 2.4 107 -999
2008-02-25 14:47:08 51°13.668 2°55.946 111.9 0.5 80 -999